sensor_id;sensor_type;location;lat;lon;timestamp;pressure;altitude;pressure_sealevel;temperature;humidity
4981;BME280;2507;50.392;7.482;2022-07-29T00:01:14;100624.53;;;22.31;47.76
4981;BME280;2507;50.392;7.482;2022-07-29T00:03:40;100619.19;;;22.46;47.43
4981;BME280;2507;50.392;7.482;2022-07-29T00:06:05;100620.84;;;22.47;46.66
4981;BME280;2507;50.392;7.482;2022-07-29T00:08:31;100618.00;;;22.48;47.09
4981;BME280;2507;50.392;7.482;2022-07-29T00:10:56;100613.94;;;22.52;47.18
4981;BME280;2507;50.392;7.482;2022-07-29T00:13:21;100618.19;;;22.47;47.03
4981;BME280;2507;50.392;7.482;2022-07-29T00:15:46;100618.91;;;22.41;47.92
4981;BME280;2507;50.392;7.482;2022-07-29T00:18:12;100620.00;;;22.31;48.47
4981;BME280;2507;50.392;7.482;2022-07-29T00:20:37;100614.59;;;21.88;48.63
4981;BME280;2507;50.392;7.482;2022-07-29T00:23:02;100608.34;;;21.73;46.82
4981;BME280;2507;50.392;7.482;2022-07-29T00:25:28;100606.69;;;21.72;47.58
4981;BME280;2507;50.392;7.482;2022-07-29T00:27:53;100617.88;;;21.98;45.84
4981;BME280;2507;50.392;7.482;2022-07-29T00:30:18;100611.78;;;22.33;46.63
4981;BME280;2507;50.392;7.482;2022-07-29T00:32:44;100610.22;;;22.39;47.19
4981;BME280;2507;50.392;7.482;2022-07-29T00:35:09;100622.03;;;22.29;46.74
4981;BME280;2507;50.392;7.482;2022-07-29T00:37:53;100612.56;;;22.27;47.51
4981;BME280;2507;50.392;7.482;2022-07-29T00:40:18;100613.03;;;22.60;46.75
4981;BME280;2507;50.392;7.482;2022-07-29T00:42:45;100619.00;;;22.47;46.80
4981;BME280;2507;50.392;7.482;2022-07-29T00:45:12;100616.88;;;22.43;46.01
4981;BME280;2507;50.392;7.482;2022-07-29T00:47:37;100611.59;;;22.49;46.67
4981;BME280;2507;50.392;7.482;2022-07-29T00:50:04;100607.28;;;22.33;47.29
4981;BME280;2507;50.392;7.482;2022-07-29T00:52:29;100615.88;;;22.29;47.22
4981;BME280;2507;50.392;7.482;2022-07-29T00:54:56;100605.91;;;22.23;47.22
4981;BME280;2507;50.392;7.482;2022-07-29T00:57:21;100607.66;;;22.16;47.64
4981;BME280;2507;50.392;7.482;2022-07-29T00:59:47;100607.16;;;21.75;48.81
4981;BME280;2507;50.392;7.482;2022-07-29T01:02:12;100606.41;;;21.67;48.67
4981;BME280;2507;50.392;7.482;2022-07-29T01:04:37;100597.50;;;21.74;48.48
4981;BME280;2507;50.392;7.482;2022-07-29T01:07:04;100592.47;;;21.79;48.10
4981;BME280;2507;50.392;7.482;2022-07-29T01:09:31;100590.75;;;21.78;47.61
4981;BME280;2507;50.392;7.482;2022-07-29T01:11:58;100583.22;;;21.67;47.50
4981;BME280;2507;50.392;7.482;2022-07-29T01:14:24;100583.69;;;21.71;47.44
4981;BME280;2507;50.392;7.482;2022-07-29T01:17:03;100581.41;;;21.82;47.71
4981;BME280;2507;50.392;7.482;2022-07-29T01:19:47;100579.59;;;21.38;48.89
4981;BME280;2507;50.392;7.482;2022-07-29T01:22:37;100572.66;;;21.28;48.98
4981;BME280;2507;50.392;7.482;2022-07-29T01:25:24;100568.09;;;21.14;49.49
4981;BME280;2507;50.392;7.482;2022-07-29T01:30:58;100558.09;;;21.31;48.94
4981;BME280;2507;50.392;7.482;2022-07-29T01:33:25;100557.53;;;21.21;49.20
4981;BME280;2507;50.392;7.482;2022-07-29T01:36:13;100557.16;;;21.47;48.50
4981;BME280;2507;50.392;7.482;2022-07-29T01:38:41;100555.19;;;21.41;48.94
4981;BME280;2507;50.392;7.482;2022-07-29T01:41:09;100563.63;;;21.29;49.00
4981;BME280;2507;50.392;7.482;2022-07-29T01:43:42;100560.78;;;21.31;48.95
4981;BME280;2507;50.392;7.482;2022-07-29T01:46:12;100554.25;;;21.33;47.94
4981;BME280;2507;50.392;7.482;2022-07-29T01:48:52;100555.16;;;21.26;47.59
4981;BME280;2507;50.392;7.482;2022-07-29T01:51:20;100558.69;;;21.18;47.41
4981;BME280;2507;50.392;7.482;2022-07-29T01:54:00;100555.56;;;21.15;47.00
4981;BME280;2507;50.392;7.482;2022-07-29T01:56:27;100560.09;;;21.14;46.12
4981;BME280;2507;50.392;7.482;2022-07-29T01:58:56;100555.63;;;20.99;46.97
4981;BME280;2507;50.392;7.482;2022-07-29T02:01:24;100552.19;;;20.90;47.24
4981;BME280;2507;50.392;7.482;2022-07-29T02:03:52;100548.41;;;20.85;47.21
4981;BME280;2507;50.392;7.482;2022-07-29T02:06:20;100549.56;;;20.82;47.06
4981;BME280;2507;50.392;7.482;2022-07-29T02:08:47;100558.63;;;20.73;47.79
4981;BME280;2507;50.392;7.482;2022-07-29T02:11:13;100561.66;;;20.62;48.13
4981;BME280;2507;50.392;7.482;2022-07-29T02:13:40;100556.88;;;20.58;48.23
4981;BME280;2507;50.392;7.482;2022-07-29T02:16:06;100561.56;;;20.48;47.81
4981;BME280;2507;50.392;7.482;2022-07-29T02:18:36;100556.94;;;20.42;47.59
4981;BME280;2507;50.392;7.482;2022-07-29T02:21:03;100552.44;;;20.42;47.66
4981;BME280;2507;50.392;7.482;2022-07-29T02:23:30;100556.59;;;20.45;47.44
4981;BME280;2507;50.392;7.482;2022-07-29T02:25:57;100550.41;;;20.44;47.36
4981;BME280;2507;50.392;7.482;2022-07-29T02:28:26;100549.75;;;20.42;47.38
4981;BME280;2507;50.392;7.482;2022-07-29T02:30:54;100544.97;;;20.38;47.50
4981;BME280;2507;50.392;7.482;2022-07-29T02:33:21;100541.81;;;20.34;47.70
4981;BME280;2507;50.392;7.482;2022-07-29T02:35:51;100544.66;;;20.24;49.10
4981;BME280;2507;50.392;7.482;2022-07-29T02:38:18;100545.03;;;20.21;48.07
4981;BME280;2507;50.392;7.482;2022-07-29T02:41:05;100543.19;;;20.14;48.00
4981;BME280;2507;50.392;7.482;2022-07-29T02:43:33;100548.03;;;20.02;49.04
4981;BME280;2507;50.392;7.482;2022-07-29T02:46:00;100544.59;;;19.78;49.94
4981;BME280;2507;50.392;7.482;2022-07-29T02:48:53;100555.09;;;19.63;50.18
4981;BME280;2507;50.392;7.482;2022-07-29T02:51:20;100552.94;;;19.43;50.49
4981;BME280;2507;50.392;7.482;2022-07-29T02:53:51;100552.44;;;19.31;50.63
4981;BME280;2507;50.392;7.482;2022-07-29T02:56:25;100548.41;;;19.19;51.21
4981;BME280;2507;50.392;7.482;2022-07-29T02:58:55;100546.59;;;19.19;50.80
4981;BME280;2507;50.392;7.482;2022-07-29T03:01:30;100549.22;;;19.27;50.81
4981;BME280;2507;50.392;7.482;2022-07-29T03:03:56;100544.09;;;19.18;51.11
4981;BME280;2507;50.392;7.482;2022-07-29T03:06:26;100544.09;;;19.18;51.16
4981;BME280;2507;50.392;7.482;2022-07-29T03:08:52;100538.94;;;19.24;51.10
4981;BME280;2507;50.392;7.482;2022-07-29T03:11:19;100537.44;;;19.30;50.61
4981;BME280;2507;50.392;7.482;2022-07-29T03:13:44;100535.25;;;19.25;50.43
4981;BME280;2507;50.392;7.482;2022-07-29T03:16:10;100542.22;;;19.02;51.22
4981;BME280;2507;50.392;7.482;2022-07-29T03:18:38;100546.22;;;18.90;52.00
4981;BME280;2507;50.392;7.482;2022-07-29T03:21:03;100543.19;;;18.77;51.93
4981;BME280;2507;50.392;7.482;2022-07-29T03:23:29;100544.97;;;18.61;52.52
4981;BME280;2507;50.392;7.482;2022-07-29T03:25:55;100543.59;;;18.57;52.83
4981;BME280;2507;50.392;7.482;2022-07-29T03:28:20;100543.97;;;18.62;52.77
4981;BME280;2507;50.392;7.482;2022-07-29T03:30:46;100546.78;;;18.60;52.87
4981;BME280;2507;50.392;7.482;2022-07-29T03:33:11;100543.25;;;18.52;53.17
4981;BME280;2507;50.392;7.482;2022-07-29T03:35:37;100543.59;;;18.57;52.99
4981;BME280;2507;50.392;7.482;2022-07-29T03:38:03;100539.59;;;18.45;53.24
4981;BME280;2507;50.392;7.482;2022-07-29T03:40:53;100545.84;;;18.35;53.37
4981;BME280;2507;50.392;7.482;2022-07-29T03:43:19;100553.66;;;18.11;54.92
4981;BME280;2507;50.392;7.482;2022-07-29T03:45:49;100547.25;;;17.88;56.00
4981;BME280;2507;50.392;7.482;2022-07-29T03:48:19;100559.00;;;17.86;56.59
4981;BME280;2507;50.392;7.482;2022-07-29T03:50:47;100557.22;;;17.69;57.05
4981;BME280;2507;50.392;7.482;2022-07-29T03:53:12;100557.75;;;17.72;56.66
4981;BME280;2507;50.392;7.482;2022-07-29T03:55:43;100550.75;;;17.89;56.21
4981;BME280;2507;50.392;7.482;2022-07-29T03:58:10;100544.75;;;17.87;56.12
4981;BME280;2507;50.392;7.482;2022-07-29T04:00:37;100551.78;;;17.96;56.10
4981;BME280;2507;50.392;7.482;2022-07-29T04:03:04;100547.44;;;17.95;55.63
4981;BME280;2507;50.392;7.482;2022-07-29T04:05:30;100548.78;;;17.99;55.96
4981;BME280;2507;50.392;7.482;2022-07-29T04:07:55;100549.88;;;18.14;55.35
4981;BME280;2507;50.392;7.482;2022-07-29T04:10:21;100547.75;;;18.17;55.19
4981;BME280;2507;50.392;7.482;2022-07-29T04:12:48;100549.94;;;18.30;55.19
4981;BME280;2507;50.392;7.482;2022-07-29T04:15:13;100551.16;;;18.35;55.11
4981;BME280;2507;50.392;7.482;2022-07-29T04:17:38;100555.03;;;18.41;54.82
4981;BME280;2507;50.392;7.482;2022-07-29T04:20:04;100563.56;;;18.53;54.56
4981;BME280;2507;50.392;7.482;2022-07-29T04:22:30;100559.59;;;18.65;54.51
4981;BME280;2507;50.392;7.482;2022-07-29T04:24:55;100567.66;;;18.97;53.82
4981;BME280;2507;50.392;7.482;2022-07-29T04:27:21;100562.41;;;19.29;52.83
4981;BME280;2507;50.392;7.482;2022-07-29T04:29:46;100569.91;;;19.42;52.84
4981;BME280;2507;50.392;7.482;2022-07-29T04:32:11;100579.19;;;19.94;51.54
4981;BME280;2507;50.392;7.482;2022-07-29T04:34:37;100567.53;;;20.58;49.32
4981;BME280;2507;50.392;7.482;2022-07-29T04:37:02;100568.13;;;21.06;48.51
4981;BME280;2507;50.392;7.482;2022-07-29T04:39:27;100569.28;;;21.72;47.13
4981;BME280;2507;50.392;7.482;2022-07-29T04:41:53;100573.72;;;22.60;45.37
4981;BME280;2507;50.392;7.482;2022-07-29T04:44:18;100580.50;;;22.92;44.38
4981;BME280;2507;50.392;7.482;2022-07-29T04:46:43;100574.59;;;23.17;44.22
4981;BME280;2507;50.392;7.482;2022-07-29T04:49:08;100568.63;;;24.06;42.24
4981;BME280;2507;50.392;7.482;2022-07-29T04:51:34;100576.25;;;24.78;40.89
4981;BME280;2507;50.392;7.482;2022-07-29T04:53:59;100568.59;;;25.55;39.62
4981;BME280;2507;50.392;7.482;2022-07-29T04:56:25;100572.31;;;25.47;39.30
4981;BME280;2507;50.392;7.482;2022-07-29T04:58:50;100574.25;;;24.99;39.63
4981;BME280;2507;50.392;7.482;2022-07-29T05:01:15;100578.38;;;24.55;41.08
4981;BME280;2507;50.392;7.482;2022-07-29T05:03:41;100588.31;;;24.20;41.72
4981;BME280;2507;50.392;7.482;2022-07-29T05:06:06;100587.88;;;23.89;42.45
4981;BME280;2507;50.392;7.482;2022-07-29T05:08:32;100589.28;;;23.85;42.85
4981;BME280;2507;50.392;7.482;2022-07-29T05:10:57;100593.97;;;24.04;42.95
4981;BME280;2507;50.392;7.482;2022-07-29T05:13:22;100597.78;;;24.16;42.23
4981;BME280;2507;50.392;7.482;2022-07-29T05:15:48;100590.06;;;24.06;42.04
4981;BME280;2507;50.392;7.482;2022-07-29T05:18:13;100598.97;;;24.41;41.45
4981;BME280;2507;50.392;7.482;2022-07-29T05:20:39;100600.44;;;24.84;40.94
4981;BME280;2507;50.392;7.482;2022-07-29T05:23:04;100602.59;;;24.68;41.28
4981;BME280;2507;50.392;7.482;2022-07-29T05:25:29;100600.44;;;24.84;40.65
4981;BME280;2507;50.392;7.482;2022-07-29T05:27:55;100614.22;;;24.75;40.53
4981;BME280;2507;50.392;7.482;2022-07-29T05:30:21;100613.81;;;24.71;41.22
4981;BME280;2507;50.392;7.482;2022-07-29T05:32:46;100618.28;;;24.64;41.54
4981;BME280;2507;50.392;7.482;2022-07-29T05:35:12;100626.69;;;24.55;41.85
4981;BME280;2507;50.392;7.482;2022-07-29T05:37:39;100621.25;;;25.29;40.58
4981;BME280;2507;50.392;7.482;2022-07-29T05:40:04;100627.72;;;26.53;38.92
4981;BME280;2507;50.392;7.482;2022-07-29T05:42:30;100629.06;;;28.19;36.17
4981;BME280;2507;50.392;7.482;2022-07-29T05:44:55;100638.69;;;28.76;34.57
4981;BME280;2507;50.392;7.482;2022-07-29T05:47:21;100636.03;;;28.87;34.11
4981;BME280;2507;50.392;7.482;2022-07-29T05:49:47;100641.97;;;28.78;34.27
4981;BME280;2507;50.392;7.482;2022-07-29T05:52:12;100641.00;;;28.54;34.86
4981;BME280;2507;50.392;7.482;2022-07-29T05:54:38;100636.34;;;27.63;35.73
4981;BME280;2507;50.392;7.482;2022-07-29T05:57:04;100647.97;;;27.32;36.66
4981;BME280;2507;50.392;7.482;2022-07-29T05:59:30;100652.16;;;26.51;37.74
4981;BME280;2507;50.392;7.482;2022-07-29T06:01:56;100653.63;;;26.27;38.72
4981;BME280;2507;50.392;7.482;2022-07-29T06:04:22;100654.66;;;26.46;38.61
4981;BME280;2507;50.392;7.482;2022-07-29T06:06:47;100652.91;;;26.84;37.87
4981;BME280;2507;50.392;7.482;2022-07-29T06:09:12;100660.91;;;27.10;37.18
4981;BME280;2507;50.392;7.482;2022-07-29T06:11:37;100661.31;;;27.07;37.54
4981;BME280;2507;50.392;7.482;2022-07-29T06:14:03;100657.06;;;26.80;37.85
4981;BME280;2507;50.392;7.482;2022-07-29T06:16:28;100656.69;;;26.70;38.11
4981;BME280;2507;50.392;7.482;2022-07-29T06:18:54;100657.59;;;26.25;38.42
4981;BME280;2507;50.392;7.482;2022-07-29T06:21:19;100661.91;;;26.00;39.06
4981;BME280;2507;50.392;7.482;2022-07-29T06:23:45;100659.19;;;25.61;39.59
4981;BME280;2507;50.392;7.482;2022-07-29T06:26:10;100662.69;;;25.01;41.12
4981;BME280;2507;50.392;7.482;2022-07-29T06:28:35;100671.63;;;24.40;42.16
4981;BME280;2507;50.392;7.482;2022-07-29T06:31:01;100673.38;;;23.84;43.57
4981;BME280;2507;50.392;7.482;2022-07-29T06:33:26;100676.75;;;24.07;43.77
4981;BME280;2507;50.392;7.482;2022-07-29T06:35:51;100676.19;;;24.73;42.05
4981;BME280;2507;50.392;7.482;2022-07-29T06:38:16;100677.75;;;23.85;43.71
4981;BME280;2507;50.392;7.482;2022-07-29T06:40:43;100678.59;;;23.85;44.07
4981;BME280;2507;50.392;7.482;2022-07-29T06:46:10;100680.00;;;24.30;43.85
4981;BME280;2507;50.392;7.482;2022-07-29T06:48:36;100678.59;;;25.43;40.66
4981;BME280;2507;50.392;7.482;2022-07-29T06:51:03;100680.31;;;26.42;39.13
4981;BME280;2507;50.392;7.482;2022-07-29T06:53:29;100678.94;;;27.10;37.63
4981;BME280;2507;50.392;7.482;2022-07-29T06:55:55;100674.50;;;27.35;36.58
4981;BME280;2507;50.392;7.482;2022-07-29T06:58:20;100677.41;;;27.34;36.53
4981;BME280;2507;50.392;7.482;2022-07-29T07:00:47;100681.13;;;27.70;36.26
4981;BME280;2507;50.392;7.482;2022-07-29T07:03:13;100679.00;;;28.35;35.65
4981;BME280;2507;50.392;7.482;2022-07-29T07:05:39;100684.75;;;28.99;34.23
4981;BME280;2507;50.392;7.482;2022-07-29T07:08:04;100682.50;;;29.62;33.39
4981;BME280;2507;50.392;7.482;2022-07-29T07:10:29;100683.41;;;30.38;32.98
4981;BME280;2507;50.392;7.482;2022-07-29T07:12:55;100681.28;;;29.76;32.88
4981;BME280;2507;50.392;7.482;2022-07-29T07:15:20;100680.31;;;30.92;31.68
4981;BME280;2507;50.392;7.482;2022-07-29T07:17:50;100682.13;;;32.49;29.70
4981;BME280;2507;50.392;7.482;2022-07-29T07:20:16;100677.38;;;33.21;28.79
4981;BME280;2507;50.392;7.482;2022-07-29T07:22:41;100681.59;;;33.82;28.25
4981;BME280;2507;50.392;7.482;2022-07-29T07:25:07;100672.88;;;34.48;27.63
4981;BME280;2507;50.392;7.482;2022-07-29T07:27:32;100677.00;;;35.08;26.36
4981;BME280;2507;50.392;7.482;2022-07-29T07:29:57;100674.09;;;34.72;26.84
4981;BME280;2507;50.392;7.482;2022-07-29T07:32:23;100678.88;;;33.34;27.94
4981;BME280;2507;50.392;7.482;2022-07-29T07:34:48;100670.38;;;34.10;27.43
4981;BME280;2507;50.392;7.482;2022-07-29T07:37:13;100665.63;;;33.95;28.03
4981;BME280;2507;50.392;7.482;2022-07-29T07:39:40;100667.03;;;35.48;26.15
4981;BME280;2507;50.392;7.482;2022-07-29T07:42:05;100662.16;;;36.31;24.96
4981;BME280;2507;50.392;7.482;2022-07-29T07:44:30;100663.50;;;34.81;26.17
4981;BME280;2507;50.392;7.482;2022-07-29T07:46:56;100662.53;;;35.07;26.70
4981;BME280;2507;50.392;7.482;2022-07-29T07:49:21;100656.97;;;34.82;26.49
4981;BME280;2507;50.392;7.482;2022-07-29T07:51:46;100661.81;;;34.75;26.90
4981;BME280;2507;50.392;7.482;2022-07-29T07:54:11;100654.78;;;35.56;25.85
4981;BME280;2507;50.392;7.482;2022-07-29T07:56:37;100666.72;;;33.68;27.80
4981;BME280;2507;50.392;7.482;2022-07-29T07:59:02;100658.97;;;32.14;29.05
4981;BME280;2507;50.392;7.482;2022-07-29T08:01:27;100655.84;;;31.04;30.43
4981;BME280;2507;50.392;7.482;2022-07-29T08:03:53;100660.88;;;31.24;31.07
4981;BME280;2507;50.392;7.482;2022-07-29T08:06:18;100664.66;;;31.51;30.40
4981;BME280;2507;50.392;7.482;2022-07-29T08:08:43;100663.47;;;31.19;30.88
4981;BME280;2507;50.392;7.482;2022-07-29T08:11:09;100663.59;;;29.73;32.12
4981;BME280;2507;50.392;7.482;2022-07-29T08:13:34;100664.53;;;29.67;32.35
4981;BME280;2507;50.392;7.482;2022-07-29T08:15:59;100670.38;;;30.17;32.26
4981;BME280;2507;50.392;7.482;2022-07-29T08:18:29;100666.13;;;30.79;31.68
4981;BME280;2507;50.392;7.482;2022-07-29T08:20:54;100670.28;;;31.33;30.94
4981;BME280;2507;50.392;7.482;2022-07-29T08:23:20;100669.91;;;32.35;30.16
4981;BME280;2507;50.392;7.482;2022-07-29T08:25:46;100663.78;;;34.01;28.16
4981;BME280;2507;50.392;7.482;2022-07-29T08:28:11;100665.03;;;35.19;26.15
4981;BME280;2507;50.392;7.482;2022-07-29T08:30:36;100651.53;;;35.94;25.71
4981;BME280;2507;50.392;7.482;2022-07-29T08:33:02;100666.22;;;36.63;25.23
4981;BME280;2507;50.392;7.482;2022-07-29T08:35:27;100659.59;;;36.84;24.64
4981;BME280;2507;50.392;7.482;2022-07-29T08:37:53;100665.22;;;37.62;24.25
4981;BME280;2507;50.392;7.482;2022-07-29T08:40:19;100659.78;;;38.24;23.89
4981;BME280;2507;50.392;7.482;2022-07-29T08:42:45;100661.72;;;37.90;23.65
4981;BME280;2507;50.392;7.482;2022-07-29T08:45:11;100651.34;;;38.16;23.52
4981;BME280;2507;50.392;7.482;2022-07-29T08:47:38;100647.50;;;37.49;23.93
4981;BME280;2507;50.392;7.482;2022-07-29T08:50:08;100650.34;;;37.68;23.59
4981;BME280;2507;50.392;7.482;2022-07-29T08:52:36;100660.78;;;37.71;24.05
4981;BME280;2507;50.392;7.482;2022-07-29T08:55:02;100655.13;;;37.04;23.68
4981;BME280;2507;50.392;7.482;2022-07-29T08:57:27;100643.56;;;36.28;24.52
4981;BME280;2507;50.392;7.482;2022-07-29T08:59:54;100644.19;;;33.24;27.64
4981;BME280;2507;50.392;7.482;2022-07-29T09:02:21;100646.13;;;32.42;28.52
4981;BME280;2507;50.392;7.482;2022-07-29T09:04:47;100639.81;;;33.45;28.34
4981;BME280;2507;50.392;7.482;2022-07-29T09:07:17;100642.41;;;33.93;27.66
4981;BME280;2507;50.392;7.482;2022-07-29T09:09:43;100636.00;;;34.04;26.66
4981;BME280;2507;50.392;7.482;2022-07-29T09:12:09;100643.84;;;34.32;26.50
4981;BME280;2507;50.392;7.482;2022-07-29T09:14:37;100639.75;;;33.66;27.87
4981;BME280;2507;50.392;7.482;2022-07-29T09:17:02;100630.50;;;30.98;29.84
4981;BME280;2507;50.392;7.482;2022-07-29T09:19:31;100626.81;;;30.65;30.78
4981;BME280;2507;50.392;7.482;2022-07-29T09:21:58;100630.16;;;29.08;32.81
4981;BME280;2507;50.392;7.482;2022-07-29T09:24:45;100633.03;;;28.59;33.22
4981;BME280;2507;50.392;7.482;2022-07-29T09:27:24;100635.75;;;28.77;33.17
4981;BME280;2507;50.392;7.482;2022-07-29T09:30:04;100629.19;;;29.51;32.03
4981;BME280;2507;50.392;7.482;2022-07-29T09:32:30;100621.28;;;30.02;32.01
4981;BME280;2507;50.392;7.482;2022-07-29T09:35:21;100623.03;;;29.85;31.78
4981;BME280;2507;50.392;7.482;2022-07-29T09:37:48;100622.09;;;29.50;32.00
4981;BME280;2507;50.392;7.482;2022-07-29T09:40:20;100623.91;;;29.26;32.71
4981;BME280;2507;50.392;7.482;2022-07-29T09:42:46;100620.13;;;28.79;32.82
4981;BME280;2507;50.392;7.482;2022-07-29T09:45:12;100614.38;;;29.24;33.26
4981;BME280;2507;50.392;7.482;2022-07-29T09:47:46;100614.09;;;29.55;32.18
4981;BME280;2507;50.392;7.482;2022-07-29T09:50:14;100614.94;;;29.44;32.19
4981;BME280;2507;50.392;7.482;2022-07-29T09:52:52;100620.16;;;29.27;32.24
4981;BME280;2507;50.392;7.482;2022-07-29T09:55:18;100614.09;;;29.13;32.28
4981;BME280;2507;50.392;7.482;2022-07-29T09:57:45;100619.31;;;29.56;31.70
4981;BME280;2507;50.392;7.482;2022-07-29T10:00:12;100606.44;;;29.81;31.18
4981;BME280;2507;50.392;7.482;2022-07-29T10:02:39;100610.53;;;29.84;31.50
4981;BME280;2507;50.392;7.482;2022-07-29T10:05:16;100615.88;;;29.90;31.40
4981;BME280;2507;50.392;7.482;2022-07-29T10:07:50;100607.53;;;29.51;31.92
4981;BME280;2507;50.392;7.482;2022-07-29T10:10:25;100616.44;;;28.92;32.57
4981;BME280;2507;50.392;7.482;2022-07-29T10:12:53;100614.97;;;29.67;31.78
4981;BME280;2507;50.392;7.482;2022-07-29T10:15:21;100608.38;;;30.78;29.83
4981;BME280;2507;50.392;7.482;2022-07-29T10:17:46;100610.97;;;31.69;28.89
4981;BME280;2507;50.392;7.482;2022-07-29T10:20:13;100608.19;;;32.14;28.84
4981;BME280;2507;50.392;7.482;2022-07-29T10:22:39;100604.50;;;32.58;27.82
4981;BME280;2507;50.392;7.482;2022-07-29T10:25:05;100601.94;;;32.52;27.55
4981;BME280;2507;50.392;7.482;2022-07-29T10:27:30;100603.84;;;32.51;27.26
4981;BME280;2507;50.392;7.482;2022-07-29T10:29:55;100603.28;;;32.71;27.74
4981;BME280;2507;50.392;7.482;2022-07-29T10:41:11;100594.75;;;31.30;29.19
4981;BME280;2507;50.392;7.482;2022-07-29T10:44:00;100599.25;;;30.56;29.86
4981;BME280;2507;50.392;7.482;2022-07-29T10:46:26;100595.00;;;30.60;29.75
4981;BME280;2507;50.392;7.482;2022-07-29T10:49:08;100592.50;;;30.82;29.74
4981;BME280;2507;50.392;7.482;2022-07-29T10:52:08;100589.16;;;30.91;29.62
4981;BME280;2507;50.392;7.482;2022-07-29T10:54:48;100591.28;;;31.18;29.77
4981;BME280;2507;50.392;7.482;2022-07-29T10:57:26;100592.59;;;32.26;28.26
4981;BME280;2507;50.392;7.482;2022-07-29T11:07:23;100577.81;;;31.51;29.04
4981;BME280;2507;50.392;7.482;2022-07-29T11:15:01;100580.16;;;32.30;29.00
4981;BME280;2507;50.392;7.482;2022-07-29T11:17:28;100581.00;;;31.64;28.66
4981;BME280;2507;50.392;7.482;2022-07-29T11:22:56;100570.56;;;30.32;30.47
4981;BME280;2507;50.392;7.482;2022-07-29T11:25:21;100567.69;;;30.50;30.62
4981;BME280;2507;50.392;7.482;2022-07-29T11:27:47;100569.16;;;31.37;29.88
4981;BME280;2507;50.392;7.482;2022-07-29T11:30:12;100578.78;;;31.17;29.71
4981;BME280;2507;50.392;7.482;2022-07-29T11:32:40;100569.75;;;31.11;29.20
4981;BME280;2507;50.392;7.482;2022-07-29T11:35:17;100571.41;;;31.29;29.76
4981;BME280;2507;50.392;7.482;2022-07-29T11:37:46;100567.94;;;31.45;29.92
4981;BME280;2507;50.392;7.482;2022-07-29T11:40:13;100569.31;;;31.64;29.54
4981;BME280;2507;50.392;7.482;2022-07-29T11:42:41;100568.72;;;31.00;30.36
4981;BME280;2507;50.392;7.482;2022-07-29T11:45:20;100563.22;;;30.44;30.22
4981;BME280;2507;50.392;7.482;2022-07-29T11:47:49;100565.75;;;30.85;30.26
4981;BME280;2507;50.392;7.482;2022-07-29T11:50:29;100565.22;;;30.37;30.43
4981;BME280;2507;50.392;7.482;2022-07-29T11:52:55;100571.47;;;30.49;30.51
4981;BME280;2507;50.392;7.482;2022-07-29T11:55:22;100569.16;;;30.81;30.32
4981;BME280;2507;50.392;7.482;2022-07-29T11:57:58;100571.16;;;31.42;29.44
4981;BME280;2507;50.392;7.482;2022-07-29T12:02:57;100567.28;;;32.26;29.30
4981;BME280;2507;50.392;7.482;2022-07-29T12:05:34;100573.19;;;32.39;29.03
4981;BME280;2507;50.392;7.482;2022-07-29T12:08:07;100567.06;;;32.65;27.97
4981;BME280;2507;50.392;7.482;2022-07-29T12:10:33;100569.50;;;32.67;28.66
4981;BME280;2507;50.392;7.482;2022-07-29T12:12:59;100574.34;;;32.22;28.70
4981;BME280;2507;50.392;7.482;2022-07-29T12:15:24;100568.03;;;31.66;29.12
4981;BME280;2507;50.392;7.482;2022-07-29T12:17:51;100562.25;;;31.63;29.81
4981;BME280;2507;50.392;7.482;2022-07-29T12:20:28;100555.69;;;31.59;30.06
4981;BME280;2507;50.392;7.482;2022-07-29T12:22:54;100556.09;;;32.22;29.78
4981;BME280;2507;50.392;7.482;2022-07-29T12:25:22;100555.88;;;32.62;28.33
4981;BME280;2507;50.392;7.482;2022-07-29T12:27:57;100554.94;;;32.35;29.00
4981;BME280;2507;50.392;7.482;2022-07-29T12:30:23;100551.50;;;32.23;28.57
4981;BME280;2507;50.392;7.482;2022-07-29T12:32:58;100549.34;;;32.89;28.36
4981;BME280;2507;50.392;7.482;2022-07-29T12:35:24;100548.72;;;33.04;27.68
4981;BME280;2507;50.392;7.482;2022-07-29T12:37:50;100538.41;;;33.64;27.08
4981;BME280;2507;50.392;7.482;2022-07-29T12:40:17;100541.69;;;33.35;27.86
4981;BME280;2507;50.392;7.482;2022-07-29T12:43:05;100538.59;;;32.94;28.18
4981;BME280;2507;50.392;7.482;2022-07-29T12:45:31;100538.31;;;33.49;27.93
4981;BME280;2507;50.392;7.482;2022-07-29T12:47:56;100538.91;;;33.30;27.60
4981;BME280;2507;50.392;7.482;2022-07-29T12:50:21;100537.28;;;33.60;28.72
4981;BME280;2507;50.392;7.482;2022-07-29T12:52:47;100533.22;;;33.63;27.85
4981;BME280;2507;50.392;7.482;2022-07-29T12:55:13;100518.63;;;32.89;28.38
4981;BME280;2507;50.392;7.482;2022-07-29T12:57:48;100528.19;;;32.43;29.42
4981;BME280;2507;50.392;7.482;2022-07-29T13:00:16;100519.41;;;31.98;29.30
4981;BME280;2507;50.392;7.482;2022-07-29T13:02:42;100515.97;;;31.36;29.61
4981;BME280;2507;50.392;7.482;2022-07-29T13:05:09;100509.66;;;31.19;30.09
4981;BME280;2507;50.392;7.482;2022-07-29T13:07:36;100511.72;;;31.29;30.35
4981;BME280;2507;50.392;7.482;2022-07-29T13:10:13;100509.75;;;31.24;30.90
4981;BME280;2507;50.392;7.482;2022-07-29T13:13:06;100508.97;;;30.67;30.84
4981;BME280;2507;50.392;7.482;2022-07-29T13:15:33;100508.56;;;30.87;31.31
4981;BME280;2507;50.392;7.482;2022-07-29T13:17:59;100507.13;;;30.84;30.78
4981;BME280;2507;50.392;7.482;2022-07-29T13:20:26;100510.16;;;31.16;30.35
4981;BME280;2507;50.392;7.482;2022-07-29T13:22:54;100510.97;;;31.17;30.11
4981;BME280;2507;50.392;7.482;2022-07-29T13:25:25;100507.31;;;31.72;29.92
4981;BME280;2507;50.392;7.482;2022-07-29T13:27:51;100508.34;;;32.69;28.01
4981;BME280;2507;50.392;7.482;2022-07-29T13:30:16;100515.53;;;32.80;29.12
4981;BME280;2507;50.392;7.482;2022-07-29T13:32:41;100514.44;;;32.76;28.72
4981;BME280;2507;50.392;7.482;2022-07-29T13:35:08;100516.06;;;32.34;28.49
4981;BME280;2507;50.392;7.482;2022-07-29T13:37:34;100509.59;;;32.40;28.99
4981;BME280;2507;50.392;7.482;2022-07-29T13:40:03;100504.25;;;32.67;28.91
4981;BME280;2507;50.392;7.482;2022-07-29T13:42:29;100513.41;;;32.61;28.72
4981;BME280;2507;50.392;7.482;2022-07-29T13:44:54;100509.16;;;32.43;28.27
4981;BME280;2507;50.392;7.482;2022-07-29T13:47:21;100509.53;;;32.14;29.30